Time;durP1;ratioP1;P1;durP2;ratioP2;P2;SDS_P1;SDS_P2;PMS_P1;PMS_P2;Temp;Humidity;BMP_temperature;BMP_pressure;BME280_temperature;BME280_humidity;BME280_pressure;Samples;Min_cycle;Max_cycle;Signal;HPM_P1;HPM_P2
2022/06/21 00:23:44;;;;;;;6.40;2.45;;;14.30;99.90;;;;;;5076089;28;20048;-91
2022/06/21 00:26:31;;;;;;;2.50;1.95;;;14.20;99.90;;;;;;5072689;28;20127;-91
2022/06/21 00:29:23;;;;;;;2.92;1.80;;;14.30;99.90;;;;;;5079608;28;20040;-91
2022/06/21 00:32:36;;;;;;;4.18;1.90;;;14.40;99.90;;;;;;5079954;28;20044;-92
2022/06/21 00:35:24;;;;;;;2.90;1.83;;;14.40;99.90;;;;;;5074334;28;20076;-92
2022/06/21 00:38:13;;;;;;;2.95;1.80;;;14.50;99.90;;;;;;5074349;28;20040;-90
2022/06/21 00:41:06;;;;;;;2.10;1.48;;;14.40;99.90;;;;;;5077492;28;20584;-91
2022/06/21 00:43:53;;;;;;;3.67;1.55;;;14.50;99.90;;;;;;5077907;28;20045;-90
2022/06/21 00:46:49;;;;;;;2.75;1.85;;;14.60;99.90;;;;;;5077711;28;20075;-91
2022/06/21 00:49:57;;;;;;;6.30;1.90;;;14.60;99.90;;;;;;5077570;28;20481;-91
2022/06/21 00:53:04;;;;;;;2.72;1.90;;;14.50;99.90;;;;;;5077364;28;20397;-91
2022/06/21 00:56:31;;;;;;;5.03;1.98;;;14.60;99.90;;;;;;5063467;28;20083;-91
2022/06/21 00:59:22;;;;;;;2.28;1.63;;;14.60;99.90;;;;;;4976891;28;20046;-90
2022/06/21 01:02:42;;;;;;;2.90;1.98;;;14.60;99.90;;;;;;5083843;28;20060;-92
2022/06/21 01:05:33;;;;;;;5.60;2.47;;;14.60;99.90;;;;;;5056843;28;20141;-91
2022/06/21 01:08:32;;;;;;;3.17;2.15;;;14.50;99.90;;;;;;5089247;28;20092;-84
2022/06/21 01:11:30;;;;;;;3.67;1.85;;;14.60;99.90;;;;;;5090001;28;20063;-90
2022/06/21 01:14:21;;;;;;;2.22;1.88;;;14.50;99.90;;;;;;5083233;28;20103;-89
2022/06/21 01:17:17;;;;;;;2.55;2.00;;;14.40;99.90;;;;;;5087384;28;20033;-91
2022/06/21 01:20:08;;;;;;;4.70;2.42;;;14.30;99.90;;;;;;5085515;28;20029;-88
2022/06/21 01:23:14;;;;;;;5.05;1.90;;;14.20;99.90;;;;;;5064911;28;20056;-91
2022/06/21 01:26:32;;;;;;;3.80;2.60;;;14.10;99.90;;;;;;5072199;28;20347;-91
2022/06/21 01:29:26;;;;;;;3.15;2.28;;;13.90;99.90;;;;;;5066386;28;20041;-92
2022/06/21 01:32:14;;;;;;;4.20;2.10;;;13.80;99.90;;;;;;5064366;28;20472;-92
2022/06/21 01:35:11;;;;;;;2.35;2.15;;;13.70;99.90;;;;;;5061827;28;20114;-92
2022/06/21 01:38:01;;;;;;;2.65;2.45;;;13.60;99.90;;;;;;5070582;28;20106;-92
2022/06/21 01:40:52;;;;;;;4.18;2.75;;;13.60;99.90;;;;;;5059696;28;20052;-92
2022/06/21 01:43:46;;;;;;;2.50;2.30;;;13.50;99.90;;;;;;5074470;28;20411;-92
2022/06/21 01:46:33;;;;;;;4.63;2.20;;;13.40;99.90;;;;;;5076665;28;20141;-92
2022/06/21 01:49:27;;;;;;;3.80;2.28;;;13.30;99.90;;;;;;5056672;28;20473;-92
2022/06/21 01:52:19;;;;;;;5.53;2.63;;;13.20;99.90;;;;;;5073966;28;20075;-91
2022/06/21 01:55:27;;;;;;;2.85;2.28;;;13.20;99.90;;;;;;5074294;28;20120;-92
2022/06/21 01:58:21;;;;;;;3.10;2.80;;;13.10;99.90;;;;;;5066355;28;20460;-92
2022/06/21 02:01:38;;;;;;;6.57;3.10;;;13.00;99.90;;;;;;5056977;28;20163;-92
2022/06/21 02:04:31;;;;;;;4.35;3.15;;;13.00;99.90;;;;;;5073360;28;20048;-90
2022/06/21 02:07:37;;;;;;;4.72;3.20;;;13.00;99.90;;;;;;5080750;28;20056;-91
2022/06/21 02:10:27;;;;;;;4.55;2.97;;;12.90;99.90;;;;;;5074803;28;20128;-92
2022/06/21 02:13:24;;;;;;;7.22;2.85;;;12.80;99.90;;;;;;5074636;28;20103;-92
2022/06/21 02:16:21;;;;;;;4.80;3.10;;;12.70;99.90;;;;;;5084606;28;20141;-92
2022/06/21 02:19:24;;;;;;;3.85;3.28;;;12.70;99.90;;;;;;5072673;28;20421;-91
2022/06/21 02:22:21;;;;;;;4.40;3.20;;;12.70;99.90;;;;;;5064279;28;20045;-90
2022/06/21 02:25:21;;;;;;;5.85;3.33;;;12.70;99.90;;;;;;5074443;28;20464;-91
2022/06/21 02:28:10;;;;;;;6.88;3.40;;;12.60;99.90;;;;;;5076269;28;20051;-92
2022/06/21 02:30:58;;;;;;;5.30;2.90;;;12.60;99.90;;;;;;5073111;28;20071;-92
2022/06/21 02:33:48;;;;;;;3.80;3.20;;;12.50;99.90;;;;;;5069993;28;20087;-91
2022/06/21 02:36:55;;;;;;;3.38;3.08;;;12.50;99.90;;;;;;5075495;28;20366;-92
2022/06/21 02:39:46;;;;;;;6.50;3.70;;;12.50;99.90;;;;;;5042941;28;20049;-91
2022/06/21 02:42:42;;;;;;;8.93;3.30;;;12.50;99.90;;;;;;5060948;28;20044;-92
2022/06/21 02:45:37;;;;;;;7.80;3.40;;;12.40;99.90;;;;;;5070311;28;20055;-92
2022/06/21 02:48:28;;;;;;;4.03;3.13;;;12.40;99.90;;;;;;5068364;28;20037;-92
2022/06/21 02:51:21;;;;;;;3.20;2.70;;;12.30;99.90;;;;;;5072297;28;20045;-91
2022/06/21 02:54:26;;;;;;;4.78;2.90;;;12.40;99.90;;;;;;5056270;28;20446;-92
2022/06/21 02:57:44;;;;;;;7.70;3.30;;;12.50;99.90;;;;;;5066673;28;20041;-92
2022/06/21 03:00:32;;;;;;;5.63;2.75;;;12.50;99.90;;;;;;5061898;28;20059;-92
2022/06/21 03:03:25;;;;;;;5.85;3.10;;;12.50;99.90;;;;;;5057460;28;20041;-92
2022/06/21 03:06:16;;;;;;;4.32;3.10;;;12.60;99.90;;;;;;5075286;28;20146;-90
2022/06/21 03:09:11;;;;;;;8.63;3.40;;;12.60;99.90;;;;;;5067857;28;20055;-91
2022/06/21 03:12:07;;;;;;;4.80;3.35;;;12.50;99.90;;;;;;5046834;28;20044;-91
2022/06/21 03:15:06;;;;;;;4.82;2.75;;;12.40;99.90;;;;;;5058373;28;20130;-90
2022/06/21 03:18:04;;;;;;;7.20;3.28;;;12.40;99.90;;;;;;5072131;28;20041;-89
2022/06/21 03:20:52;;;;;;;5.40;2.90;;;12.40;99.90;;;;;;5056034;28;20064;-90
2022/06/21 03:23:41;;;;;;;3.33;2.97;;;12.50;99.90;;;;;;5078882;28;20049;-91
2022/06/21 03:26:32;;;;;;;5.38;3.63;;;12.40;99.90;;;;;;5074462;28;20511;-91
2022/06/21 03:29:23;;;;;;;4.35;3.50;;;12.40;99.90;;;;;;5076847;28;20075;-89
2022/06/21 03:32:11;;;;;;;5.38;3.15;;;12.50;99.90;;;;;;5060721;28;20062;-93
2022/06/21 03:35:07;;;;;;;4.53;3.20;;;12.50;99.90;;;;;;5077462;28;20052;-89
2022/06/21 03:37:54;;;;;;;7.07;3.28;;;12.60;99.90;;;;;;5043814;28;20118;-93
2022/06/21 03:43:54;;;;;;;6.80;3.15;;;12.50;99.90;;;;;;5070839;28;20055;-92
2022/06/21 03:47:06;;;;;;;6.13;2.78;;;12.60;99.90;;;;;;5066756;28;20190;-91
2022/06/21 03:49:57;;;;;;;4.07;2.95;;;12.80;99.90;;;;;;5074187;28;20059;-90
2022/06/21 03:53:02;;;;;;;5.15;2.83;;;13.00;99.90;;;;;;5059632;28;20040;-91
2022/06/21 03:56:00;;;;;;;3.83;2.78;;;13.10;99.90;;;;;;5072766;28;20068;-94
2022/06/21 03:58:57;;;;;;;4.63;2.50;;;13.30;99.90;;;;;;5072874;28;20062;-93
2022/06/21 04:06:01;;;;;;;4.55;2.42;;;13.50;99.90;;;;;;5072338;28;20286;-90
2022/06/21 04:09:23;;;;;;;2.72;1.75;;;13.40;99.90;;;;;;5051938;28;20089;-92
2022/06/21 04:12:28;;;;;;;3.92;1.98;;;13.50;99.90;;;;;;5059939;28;20055;-92
2022/06/21 04:15:29;;;;;;;3.67;2.30;;;13.50;99.90;;;;;;5073556;28;20036;-92
2022/06/21 04:18:43;;;;;;;4.78;2.47;;;13.60;99.90;;;;;;5068845;28;20045;-93
2022/06/21 04:26:25;;;;;;;2.42;2.00;;;13.70;99.90;;;;;;5075231;28;20433;-90
2022/06/21 04:29:52;;;;;;;2.45;1.80;;;13.60;99.90;;;;;;5070950;28;20049;-88
2022/06/21 04:33:12;;;;;;;4.22;2.13;;;13.50;99.90;;;;;;5075516;28;20064;-88
2022/06/21 04:44:24;;;;;;;3.38;1.80;;;13.70;99.90;;;;;;5072199;28;20078;-90
2022/06/21 04:47:14;;;;;;;1.95;1.60;;;13.90;99.90;;;;;;5062550;28;20053;-91
2022/06/21 04:50:46;;;;;;;4.05;2.10;;;13.80;99.90;;;;;;5085189;28;20205;-90
2022/06/21 05:09:57;;;;;;;3.60;2.03;;;14.30;99.90;;;;;;5090255;28;20023;-86
2022/06/21 05:12:47;;;;;;;5.25;2.20;;;14.30;99.90;;;;;;5087452;28;20142;-89
2022/06/21 05:15:41;;;;;;;7.88;2.53;;;14.30;99.90;;;;;;5077975;28;20074;-91
2022/06/21 05:18:37;;;;;;;3.55;1.80;;;14.30;99.90;;;;;;5080145;28;20078;-92
2022/06/21 05:21:43;;;;;;;6.47;2.70;;;14.20;99.90;;;;;;5059497;28;20137;-89
2022/06/21 05:24:31;;;;;;;3.63;2.10;;;14.20;99.90;;;;;;5072710;28;20044;-88
2022/06/21 05:27:29;;;;;;;6.57;2.40;;;14.20;99.90;;;;;;5077211;28;20407;-91
2022/06/21 05:30:41;;;;;;;4.68;2.45;;;14.30;99.90;;;;;;5059881;28;20037;-90
2022/06/21 05:33:47;;;;;;;5.13;2.08;;;14.30;99.90;;;;;;5061254;28;20044;-90
2022/06/21 05:40:58;;;;;;;4.22;2.50;;;14.40;99.90;;;;;;5075467;28;20040;-91
2022/06/21 05:43:51;;;;;;;7.63;2.55;;;14.30;99.90;;;;;;5071967;28;20040;-92
2022/06/21 05:47:10;;;;;;;4.32;2.42;;;14.30;99.90;;;;;;5070322;28;20484;-92
2022/06/21 05:50:26;;;;;;;;;;;;;;;;;;;;;
2022/06/21 05:53:53;;;;;;;4.88;2.65;;;14.20;99.90;;;;;;5073457;28;20047;-88
2022/06/21 05:56:57;;;;;;;3.47;2.95;;;14.20;99.90;;;;;;5049143;28;20040;-91
2022/06/21 06:04:31;;;;;;;4.80;2.83;;;14.60;99.90;;;;;;5007630;28;20139;-85
2022/06/21 06:07:58;;;;;;;3.50;3.20;;;14.80;99.90;;;;;;5008404;28;20351;-92
2022/06/21 06:10:49;;;;;;;7.57;3.28;;;15.00;99.90;;;;;;4998662;28;20042;-88
2022/06/21 06:13:46;;;;;;;4.03;2.90;;;15.30;99.90;;;;;;5057574;28;20122;-91
2022/06/21 06:16:42;;;;;;;10.77;3.10;;;15.30;99.90;;;;;;5070174;28;20040;-89
2022/06/21 06:20:08;;;;;;;4.47;2.78;;;15.60;99.90;;;;;;5071014;28;20044;-90
2022/06/21 06:23:37;;;;;;;6.45;2.75;;;15.80;99.90;;;;;;5065008;28;20049;-91
2022/06/21 06:26:38;;;;;;;4.93;2.80;;;16.00;99.90;;;;;;5074499;28;20047;-87
2022/06/21 06:29:42;;;;;;;6.55;2.80;;;16.20;99.90;;;;;;5060302;28;20123;-90
2022/06/21 06:32:42;;;;;;;5.50;2.83;;;16.40;99.90;;;;;;5070026;28;20152;-88
2022/06/21 06:35:30;;;;;;;5.68;2.58;;;16.50;99.90;;;;;;5072464;28;20049;-90
2022/06/21 06:38:18;;;;;;;5.25;2.58;;;16.80;99.90;;;;;;5066066;28;20053;-88
2022/06/21 06:41:13;;;;;;;3.92;2.28;;;17.10;99.90;;;;;;5065541;28;20044;-90
2022/06/21 06:44:12;;;;;;;3.78;2.35;;;17.30;99.90;;;;;;5057449;28;20048;-88
2022/06/21 06:47:02;;;;;;;3.72;2.33;;;17.50;99.90;;;;;;5073385;28;20048;-86
2022/06/21 06:50:05;;;;;;;6.57;2.45;;;17.80;99.90;;;;;;5070978;28;20056;-88
2022/06/21 06:52:59;;;;;;;5.05;2.42;;;17.80;99.90;;;;;;5065732;28;20235;-89
2022/06/21 06:55:50;;;;;;;3.17;2.47;;;17.70;99.90;;;;;;5061528;28;20075;-89
2022/06/21 06:58:57;;;;;;;5.28;2.55;;;18.10;99.90;;;;;;5070712;28;20047;-89
2022/06/21 07:02:10;;;;;;;3.85;2.25;;;18.60;99.90;;;;;;5069774;28;20139;-87
2022/06/21 07:05:26;;;;;;;4.53;2.22;;;19.10;99.90;;;;;;5076010;28;20045;-89
2022/06/21 07:08:48;;;;;;;3.13;1.85;;;19.80;99.90;;;;;;5073293;28;20051;-92
2022/06/21 07:11:39;;;;;;;2.33;2.10;;;20.40;99.90;;;;;;5067118;28;20189;-92
2022/06/21 07:14:30;;;;;;;5.15;2.42;;;20.80;99.90;;;;;;5069038;28;20048;-90
2022/06/21 07:17:40;;;;;;;6.47;2.30;;;20.20;99.90;;;;;;5075599;28;20051;-93
2022/06/21 07:20:48;;;;;;;3.10;2.20;;;19.90;99.90;;;;;;5063556;28;20052;-93
2022/06/21 07:23:35;;;;;;;5.97;2.03;;;20.50;99.90;;;;;;5073513;28;20040;-91
2022/06/21 07:26:31;;;;;;;5.63;2.20;;;20.50;99.90;;;;;;5071738;28;20311;-90
2022/06/21 07:29:29;;;;;;;4.07;2.53;;;20.60;99.90;;;;;;5054100;28;20036;-92
2022/06/21 07:32:23;;;;;;;2.55;2.20;;;20.50;99.90;;;;;;5062090;28;20146;-89
2022/06/21 07:35:32;;;;;;;4.88;2.30;;;20.30;99.90;;;;;;5070017;28;20041;-92
2022/06/21 07:38:33;;;;;;;4.40;2.58;;;20.40;99.90;;;;;;5068369;28;20520;-91
2022/06/21 07:41:33;;;;;;;4.22;2.17;;;20.30;99.90;;;;;;5071149;28;20032;-90
2022/06/21 07:44:46;;;;;;;3.88;2.53;;;20.50;99.90;;;;;;5059557;28;20032;-91
2022/06/21 07:47:37;;;;;;;;;;;20.60;99.90;;;;;;5073906;28;20040;-91
2022/06/21 07:50:51;;;;;;;4.28;2.38;;;20.60;99.90;;;;;;5075378;28;19920;-88
2022/06/21 07:53:50;;;;;;;4.15;2.33;;;20.40;99.90;;;;;;5062684;28;20110;-89
2022/06/21 07:57:09;;;;;;;3.88;2.20;;;20.00;99.90;;;;;;5046388;28;20318;-89
2022/06/21 08:00:06;;;;;;;3.80;2.00;;;19.90;99.90;;;;;;5068901;28;20040;-88
2022/06/21 08:09:36;;;;;;;3.10;1.75;;;20.40;99.90;;;;;;5081443;28;20054;-87
2022/06/21 08:12:24;;;;;;;3.17;2.05;;;21.10;99.40;;;;;;5072365;28;20107;-84
2022/06/21 08:15:15;;;;;;;4.20;1.90;;;21.00;98.20;;;;;;5063745;28;20045;-85
2022/06/21 08:18:25;;;;;;;2.40;2.13;;;20.50;99.20;;;;;;5076840;28;20472;-92
2022/06/21 08:21:19;;;;;;;4.93;1.92;;;20.40;99.90;;;;;;5075268;28;20540;-90
2022/06/21 08:24:15;;;;;;;4.70;1.90;;;20.60;99.00;;;;;;5078782;28;20048;-88
2022/06/21 08:27:55;;;;;;;3.15;1.73;;;21.20;97.10;;;;;;5067438;28;20051;-92
2022/06/21 08:30:57;;;;;;;2.95;2.00;;;21.40;97.00;;;;;;5083628;28;20048;-92
2022/06/21 08:33:52;;;;;;;4.75;1.98;;;21.10;94.50;;;;;;5075874;28;20109;-91
2022/06/21 08:36:47;;;;;;;3.67;2.05;;;20.90;96.90;;;;;;5062346;28;20536;-89
2022/06/21 08:39:45;;;;;;;3.63;1.95;;;20.70;95.50;;;;;;5046671;28;20037;-89
2022/06/21 08:43:03;;;;;;;2.95;1.92;;;20.70;96.80;;;;;;5073690;28;20063;-89
2022/06/21 08:46:26;;;;;;;4.20;2.00;;;20.60;97.50;;;;;;5064557;28;20052;-92
2022/06/21 08:49:30;;;;;;;4.88;2.22;;;21.40;93.10;;;;;;5073306;28;20041;-89
2022/06/21 08:52:34;;;;;;;7.55;2.45;;;21.40;93.20;;;;;;5077775;28;20037;-89
2022/06/21 08:55:56;;;;;;;4.60;2.10;;;21.20;94.00;;;;;;5072478;28;20055;-86
2022/06/21 08:59:13;;;;;;;5.15;2.13;;;21.00;95.10;;;;;;5067866;28;20059;-84
2022/06/21 09:02:03;;;;;;;3.60;2.20;;;21.00;95.50;;;;;;5039600;28;20041;-85
2022/06/21 09:04:53;;;;;;;8.05;2.55;;;21.20;95.70;;;;;;5070926;28;20052;-85
2022/06/21 09:07:46;;;;;;;5.97;1.98;;;21.10;94.80;;;;;;5073439;28;20457;-85
2022/06/21 09:10:47;;;;;;;6.18;2.17;;;20.90;95.50;;;;;;5077688;28;20337;-86
2022/06/21 09:13:56;;;;;;;3.67;2.40;;;21.00;95.60;;;;;;5071058;28;20067;-88
2022/06/21 09:17:15;;;;;;;5.03;2.40;;;21.50;93.10;;;;;;5078439;28;20056;-86
2022/06/21 09:20:22;;;;;;;6.80;2.20;;;23.00;94.30;;;;;;5071116;28;20056;-87
2022/06/21 09:24:01;;;;;;;5.20;1.88;;;23.90;90.40;;;;;;5071029;28;20055;-88
2022/06/21 09:26:51;;;;;;;4.38;2.08;;;25.20;77.80;;;;;;5070561;28;20047;-89
2022/06/21 09:30:06;;;;;;;5.75;2.10;;;26.20;69.30;;;;;;5074463;28;20056;-88
2022/06/21 09:33:06;;;;;;;6.07;1.88;;;26.00;70.50;;;;;;5076436;28;20044;-88
2022/06/21 09:36:40;;;;;;;2.53;1.73;;;26.20;64.00;;;;;;5061711;28;20049;-89
2022/06/21 09:39:40;;;;;;;3.53;1.75;;;26.60;69.80;;;;;;5054507;28;20063;-90
2022/06/21 09:42:37;;;;;;;3.72;1.90;;;26.90;66.70;;;;;;5075112;28;20075;-88
2022/06/21 09:45:49;;;;;;;5.53;1.55;;;26.90;69.90;;;;;;5069821;28;20115;-86
2022/06/21 09:48:37;;;;;;;;;;;27.20;63.50;;;;;;5067616;28;20040;-87
2022/06/21 09:52:09;;;;;;;4.05;1.80;;;27.40;64.70;;;;;;5080078;28;20198;-88
2022/06/21 09:55:42;;;;;;;5.07;2.03;;;27.40;65.80;;;;;;5055986;28;20040;-88
2022/06/21 09:58:51;;;;;;;5.30;2.03;;;27.70;61.70;;;;;;5062505;28;20065;-88
2022/06/21 10:01:47;;;;;;;6.70;1.90;;;27.50;57.30;;;;;;5070362;28;20044;-87
2022/06/21 10:04:55;;;;;;;3.88;1.92;;;27.40;62.10;;;;;;5061969;28;20044;-91
2022/06/21 10:08:00;;;;;;;5.60;1.80;;;27.50;60.30;;;;;;5070892;28;20043;-89
2022/06/21 10:10:47;;;;;;;6.72;2.17;;;28.00;58.50;;;;;;5072755;28;20059;-90
2022/06/21 10:14:08;;;;;;;6.57;1.90;;;28.10;58.90;;;;;;5075231;28;20051;-90
2022/06/21 10:25:08;;;;;;;3.75;1.60;;;27.50;62.70;;;;;;5074450;28;20032;-88
2022/06/21 10:40:54;;;;;;;3.35;1.65;;;29.10;58.50;;;;;;5064762;28;20020;-88
2022/06/21 10:52:11;;;;;;;5.05;1.90;;;30.40;54.00;;;;;;5079627;28;20040;-88
2022/06/21 11:08:08;;;;;;;5.93;2.17;;;29.90;54.30;;;;;;5053221;28;20080;-88
2022/06/21 11:11:20;;;;;;;4.20;1.52;;;30.50;52.30;;;;;;5050827;28;20037;-86
2022/06/21 11:39:30;;;;;;;5.18;2.03;;;28.40;59.20;;;;;;5073368;28;20067;-91
2022/06/21 11:50:58;;;;;;;4.15;2.15;;;27.80;58.90;;;;;;5070469;28;20051;-86
2022/06/21 11:58:18;;;;;;;5.07;2.17;;;26.70;61.40;;;;;;5071423;28;20240;-86
2022/06/21 12:01:38;;;;;;;4.43;2.40;;;26.40;64.30;;;;;;5067971;28;20063;-84
2022/06/21 12:05:05;;;;;;;3.53;2.20;;;26.30;64.40;;;;;;5062854;28;20040;-86
2022/06/21 12:12:47;;;;;;;3.85;2.10;;;28.20;60.90;;;;;;5069655;28;20330;-85
2022/06/21 12:36:31;;;;;;;8.43;2.85;;;26.10;66.50;;;;;;4925412;29;20028;-85
2022/06/21 12:48:07;;;;;;;3.83;2.42;;;25.20;72.70;;;;;;4918719;29;20028;-85
2022/06/21 12:51:00;;;;;;;8.60;2.38;;;25.80;71.40;;;;;;4921322;29;20136;-86
2022/06/21 12:54:05;;;;;;;7.40;2.00;;;27.30;69.90;;;;;;4922194;29;20056;-87
2022/06/21 12:57:03;;;;;;;6.45;2.50;;;28.20;67.00;;;;;;4953131;28;20204;-88
2022/06/21 12:59:59;;;;;;;2.33;1.73;;;29.50;62.50;;;;;;5064347;28;20056;-87
2022/06/21 13:03:23;;;;;;;6.05;2.10;;;31.00;60.50;;;;;;5073870;28;20353;-87
2022/06/21 13:06:22;;;;;;;5.03;2.05;;;31.50;56.10;;;;;;5079809;28;20044;-89
2022/06/21 13:09:25;;;;;;;12.95;2.40;;;31.40;56.10;;;;;;5073661;28;20041;-87
2022/06/21 13:12:24;;;;;;;6.38;2.25;;;31.60;54.90;;;;;;5073694;28;20163;-87
2022/06/21 13:15:33;;;;;;;3.13;2.17;;;31.70;54.00;;;;;;5070568;28;20200;-85
2022/06/21 13:18:39;;;;;;;8.13;2.20;;;32.00;55.30;;;;;;5072293;28;20036;-85
2022/06/21 13:21:57;;;;;;;6.22;2.55;;;31.30;54.80;;;;;;5072280;28;20468;-84
2022/06/21 13:24:52;;;;;;;6.03;2.60;;;31.30;55.10;;;;;;5079734;28;20341;-85
2022/06/21 13:27:53;;;;;;;4.40;2.53;;;32.50;54.20;;;;;;5064475;28;20486;-88
2022/06/21 13:30:54;;;;;;;7.72;2.45;;;32.00;52.60;;;;;;5064527;28;20434;-88
2022/06/21 13:33:54;;;;;;;4.00;2.78;;;31.70;54.30;;;;;;5059023;28;20041;-87
2022/06/21 13:36:52;;;;;;;6.43;2.80;;;30.40;55.30;;;;;;5056443;28;20052;-85
2022/06/21 13:40:02;;;;;;;6.28;3.13;;;29.00;58.80;;;;;;5054377;28;20052;-88
2022/06/21 13:43:13;;;;;;;5.90;2.60;;;30.10;60.60;;;;;;5059835;28;20052;-84
2022/06/21 13:46:13;;;;;;;4.60;2.35;;;31.50;58.10;;;;;;5074669;28;20052;-84
2022/06/21 14:05:36;;;;;;;7.90;2.80;;;32.70;50.50;;;;;;4995514;28;20167;-83
2022/06/21 14:08:36;;;;;;;6.07;2.88;;;33.20;51.50;;;;;;4990872;28;20065;-84
2022/06/21 14:19:59;;;;;;;5.78;3.20;;;34.10;49.60;;;;;;5075707;28;20420;-84
2022/06/21 14:27:51;;;;;;;9.38;2.70;;;33.70;49.10;;;;;;5014931;28;20047;-84
2022/06/21 14:30:45;;;;;;;8.57;3.03;;;33.30;49.80;;;;;;5058727;28;20044;-84
2022/06/21 14:33:43;;;;;;;4.32;2.90;;;33.60;50.80;;;;;;5070385;28;20041;-86
2022/06/21 14:36:43;;;;;;;6.15;3.15;;;33.60;49.80;;;;;;5072225;28;20048;-85
2022/06/21 14:39:45;;;;;;;7.18;3.00;;;33.60;49.50;;;;;;5061370;28;20099;-84
2022/06/21 14:42:46;;;;;;;6.70;2.85;;;33.70;50.30;;;;;;5079343;28;20507;-84
2022/06/21 14:45:57;;;;;;;8.80;2.90;;;33.70;49.70;;;;;;5059927;28;20052;-83
2022/06/21 14:48:56;;;;;;;7.75;2.78;;;33.50;48.90;;;;;;5071554;28;20120;-85
2022/06/21 14:52:22;;;;;;;10.88;3.20;;;33.70;50.10;;;;;;5070548;28;20037;-83
2022/06/21 14:55:25;;;;;;;5.53;2.80;;;33.00;49.90;;;;;;5072184;28;20362;-85
2022/06/21 14:58:32;;;;;;;7.45;4.10;;;32.90;50.60;;;;;;5072680;28;20147;-85
2022/06/21 15:01:40;;;;;;;5.25;3.00;;;33.10;50.50;;;;;;5066697;28;20070;-85
2022/06/21 15:04:41;;;;;;;6.85;3.30;;;33.20;50.90;;;;;;5072926;28;20422;-86
2022/06/21 15:08:02;;;;;;;3.65;2.70;;;33.10;50.20;;;;;;5062363;28;20422;-88
2022/06/21 15:11:17;;;;;;;5.63;2.97;;;33.70;50.70;;;;;;5073527;28;20044;-87
2022/06/21 15:14:09;;;;;;;7.32;2.88;;;33.90;49.10;;;;;;5075869;28;20053;-85
2022/06/21 15:17:05;;;;;;;5.10;3.40;;;34.10;48.30;;;;;;5051468;28;20048;-86
2022/06/21 15:20:13;;;;;;;5.22;3.25;;;33.20;48.00;;;;;;5075262;28;20045;-86
2022/06/21 15:23:23;;;;;;;7.40;3.13;;;32.70;49.70;;;;;;5071881;28;20121;-88
2022/06/21 15:26:21;;;;;;;7.45;3.60;;;33.20;49.90;;;;;;5060392;28;20044;-87
2022/06/21 15:29:18;;;;;;;4.10;3.25;;;32.50;50.00;;;;;;5074105;28;20036;-86
2022/06/21 15:32:15;;;;;;;8.93;3.17;;;32.20;51.10;;;;;;5065759;28;20122;-88
2022/06/21 15:35:03;;;;;;;10.38;3.55;;;31.80;52.10;;;;;;5058732;28;20044;-85
2022/06/21 15:38:00;;;;;;;9.07;3.00;;;31.90;52.00;;;;;;5055152;28;20373;-86
2022/06/21 15:40:55;;;;;;;7.60;3.38;;;32.00;51.40;;;;;;5064959;28;20174;-86
2022/06/21 15:43:44;;;;;;;9.68;3.50;;;32.20;51.50;;;;;;5066581;28;20050;-86
2022/06/21 15:46:33;;;;;;;5.15;3.05;;;32.20;50.80;;;;;;5071463;28;20369;-87
2022/06/21 15:52:40;;;;;;;8.27;3.30;;;31.60;51.80;;;;;;5072326;28;20434;-85
2022/06/21 15:55:28;;;;;;;7.20;3.83;;;31.00;53.70;;;;;;5061252;28;20067;-86
2022/06/21 15:58:38;;;;;;;6.93;3.75;;;30.50;54.50;;;;;;5059395;28;20052;-84
2022/06/21 16:01:58;;;;;;;7.93;3.55;;;30.20;54.80;;;;;;5057837;28;20076;-87
2022/06/21 16:05:21;;;;;;;5.93;3.60;;;29.90;55.80;;;;;;5069490;28;20116;-85
2022/06/21 16:08:23;;;;;;;5.63;3.83;;;29.40;56.70;;;;;;5048407;28;20654;-90
2022/06/21 16:11:25;;;;;;;8.38;3.33;;;29.50;58.40;;;;;;5071773;28;20435;-87
2022/06/21 16:14:24;;;;;;;10.40;3.70;;;29.40;58.50;;;;;;5067638;28;20048;-87
2022/06/21 16:17:18;;;;;;;6.15;4.20;;;29.30;57.60;;;;;;5063680;28;20098;-89
2022/06/21 16:20:30;;;;;;;6.15;3.63;;;29.20;57.90;;;;;;5076623;28;20354;-87
2022/06/21 16:23:21;;;;;;;;;;;28.90;58.50;;;;;;5069777;28;20037;-90
2022/06/21 16:26:26;;;;;;;11.65;4.38;;;28.80;58.60;;;;;;5082364;28;20075;-90
2022/06/21 16:29:26;;;;;;;8.75;3.90;;;29.00;58.90;;;;;;5077052;28;20403;-89
2022/06/21 16:35:50;;;;;;;10.03;4.23;;;28.20;60.00;;;;;;5094444;28;20060;-86
2022/06/21 16:38:58;;;;;;;10.65;4.03;;;27.50;62.10;;;;;;5071124;28;20303;-86
2022/06/21 16:45:23;;;;;;;9.63;4.55;;;27.10;64.40;;;;;;5059923;28;20037;-84
2022/06/21 16:48:25;;;;;;;10.80;4.35;;;26.90;65.00;;;;;;5044522;28;20067;-90
2022/06/21 16:51:25;;;;;;;9.32;4.00;;;26.80;65.40;;;;;;5061579;28;20051;-86
2022/06/21 16:54:29;;;;;;;7.32;4.18;;;26.60;65.80;;;;;;5069554;28;20040;-85
2022/06/21 16:57:30;;;;;;;8.45;4.10;;;26.40;67.00;;;;;;5081221;28;20056;-85
2022/06/21 17:00:38;;;;;;;9.82;4.20;;;26.30;66.80;;;;;;5077557;28;20044;-85
2022/06/21 17:04:01;;;;;;;12.60;4.50;;;26.10;68.30;;;;;;5070931;28;20045;-85
2022/06/21 17:06:56;;;;;;;5.65;3.85;;;26.10;68.60;;;;;;5067388;28;20040;-87
2022/06/21 17:10:01;;;;;;;6.88;3.78;;;26.10;69.50;;;;;;5072706;28;20063;-85
2022/06/21 17:12:50;;;;;;;6.45;4.32;;;25.90;68.70;;;;;;5086997;28;20055;-88
2022/06/21 17:15:40;;;;;;;14.73;4.38;;;25.90;69.60;;;;;;5065089;28;20055;-87
2022/06/21 17:19:07;;;;;;;10.90;5.13;;;25.90;69.30;;;;;;5058312;28;20020;-83
2022/06/21 17:22:31;;;;;;;10.75;4.30;;;25.80;70.40;;;;;;5066456;28;20104;-90
2022/06/21 17:25:19;;;;;;;6.13;4.25;;;25.90;70.70;;;;;;5084595;28;20041;-89
2022/06/21 17:28:18;;;;;;;6.55;4.00;;;25.90;70.40;;;;;;5077894;28;20040;-87
2022/06/21 17:31:32;;;;;;;10.50;3.95;;;25.90;70.00;;;;;;5084587;28;20044;-86
2022/06/21 17:34:53;;;;;;;5.70;4.10;;;25.80;70.90;;;;;;5075576;28;20143;-88
2022/06/21 17:37:50;;;;;;;8.77;4.15;;;25.70;71.00;;;;;;5070657;28;20049;-88
2022/06/21 17:40:50;;;;;;;9.30;4.47;;;25.60;71.30;;;;;;5074051;28;20343;-88
2022/06/21 17:43:43;;;;;;;6.90;4.60;;;25.60;71.70;;;;;;5048345;28;20131;-87
2022/06/21 17:46:43;;;;;;;6.47;4.47;;;25.60;71.90;;;;;;5066475;28;20048;-88
2022/06/21 17:49:35;;;;;;;7.28;4.10;;;25.60;73.00;;;;;;5062687;28;20084;-90
2022/06/21 17:52:32;;;;;;;12.00;4.50;;;25.50;74.00;;;;;;5071731;28;20041;-90
2022/06/21 17:55:26;;;;;;;5.05;4.20;;;25.40;74.20;;;;;;5065119;28;20458;-89
2022/06/21 17:58:20;;;;;;;8.07;4.50;;;25.40;75.10;;;;;;5059013;28;20044;-88
2022/06/21 18:01:25;;;;;;;9.02;4.25;;;25.20;75.80;;;;;;5073207;28;20044;-90
2022/06/21 18:04:17;;;;;;;9.75;4.38;;;25.10;75.40;;;;;;5071978;28;20044;-89
2022/06/21 18:07:30;;;;;;;6.07;4.03;;;25.10;76.10;;;;;;5072104;28;20040;-88
2022/06/21 18:10:24;;;;;;;;;;;25.00;76.40;;;;;;5059315;28;20037;-89
2022/06/21 18:13:26;;;;;;;10.50;4.70;;;24.80;76.90;;;;;;5081621;28;19921;-88
2022/06/21 18:16:35;;;;;;;7.82;3.88;;;24.70;77.90;;;;;;5074511;28;20096;-88
2022/06/21 18:19:40;;;;;;;9.80;4.40;;;24.60;78.10;;;;;;5051428;28;20065;-88
2022/06/21 18:22:33;;;;;;;9.65;4.93;;;24.50;78.40;;;;;;5073756;28;20394;-87
2022/06/21 18:25:38;;;;;;;8.15;4.60;;;24.40;79.40;;;;;;5073015;28;20048;-87
2022/06/21 18:28:25;;;;;;;6.88;4.43;;;24.30;80.30;;;;;;5069226;28;20041;-89
2022/06/21 18:31:49;;;;;;;7.88;4.07;;;24.30;81.30;;;;;;5067511;28;20041;-87
2022/06/21 18:34:37;;;;;;;6.45;4.28;;;24.10;81.90;;;;;;5052946;28;20045;-89
2022/06/21 18:37:33;;;;;;;14.00;4.65;;;24.00;83.30;;;;;;5057866;28;20036;-88
2022/06/21 18:40:28;;;;;;;10.93;4.40;;;24.00;84.40;;;;;;5072155;28;20060;-88
2022/06/21 18:43:44;;;;;;;8.98;4.80;;;23.80;85.60;;;;;;5058492;28;20093;-88
2022/06/21 18:46:37;;;;;;;7.15;4.50;;;23.70;87.20;;;;;;5060774;28;20055;-90
2022/06/21 18:49:52;;;;;;;5.32;4.47;;;23.60;87.50;;;;;;5060114;28;20057;-86
2022/06/21 18:52:57;;;;;;;10.48;4.72;;;23.50;88.50;;;;;;5065620;28;20052;-88
2022/06/21 18:56:13;;;;;;;7.78;4.28;;;23.40;90.40;;;;;;5062252;28;20114;-87
2022/06/21 18:59:16;;;;;;;9.02;4.97;;;23.20;90.50;;;;;;5043880;28;20052;-87
2022/06/21 19:02:38;;;;;;;11.23;5.00;;;23.10;91.10;;;;;;5064218;28;20115;-85
2022/06/21 19:09:05;;;;;;;9.57;5.80;;;23.10;90.80;;;;;;5078948;28;20045;-87
2022/06/21 19:12:08;;;;;;;11.77;5.38;;;23.10;91.20;;;;;;5063307;28;20096;-85
2022/06/21 19:15:18;;;;;;;11.30;4.90;;;23.00;91.80;;;;;;5071999;28;20086;-88
2022/06/21 19:18:30;;;;;;;12.73;5.05;;;22.90;92.00;;;;;;5068766;28;20153;-89
2022/06/21 19:21:38;;;;;;;8.75;4.72;;;22.90;92.00;;;;;;5067596;28;20044;-87
2022/06/21 19:24:38;;;;;;;7.20;4.60;;;22.90;92.50;;;;;;5076823;28;20098;-87
2022/06/21 19:27:38;;;;;;;11.27;5.35;;;22.80;93.10;;;;;;5082984;28;20052;-87
2022/06/21 19:31:14;;;;;;;8.18;4.82;;;22.70;93.00;;;;;;5062765;28;20049;-87
2022/06/21 19:34:19;;;;;;;6.68;4.18;;;22.50;94.40;;;;;;5060415;28;20465;-86
2022/06/21 19:37:09;;;;;;;8.65;4.30;;;22.40;94.90;;;;;;5070103;28;20407;-87
2022/06/21 19:40:20;;;;;;;8.10;5.32;;;22.30;94.80;;;;;;5060101;28;20044;-86